createdAt,value
2022-12-03T00:00:16.482Z,102628.22
2022-12-03T00:02:44.719Z,102630.91
2022-12-03T00:05:13.133Z,102636.16
2022-12-03T00:07:42.727Z,102640.72
2022-12-03T00:10:11.828Z,102638.09
2022-12-03T00:12:40.115Z,102637.22
2022-12-03T00:15:10.747Z,102636.41
2022-12-03T00:17:39.194Z,102634.72
2022-12-03T00:20:09.757Z,102635.50
2022-12-03T00:22:37.956Z,102630.41
2022-12-03T00:25:09.488Z,102631.38
2022-12-03T00:27:37.639Z,102626.25
2022-12-03T00:30:08.449Z,102615.94
2022-12-03T00:32:39.610Z,102617.00
2022-12-03T00:35:08.793Z,102617.88
2022-12-03T00:37:36.992Z,102612.69
2022-12-03T00:40:08.063Z,102610.88
2022-12-03T00:42:36.255Z,102612.69
2022-12-03T00:45:05.129Z,102608.22
2022-12-03T00:47:33.257Z,102609.13
2022-12-03T00:50:01.427Z,102606.44
2022-12-03T00:52:29.579Z,102610.09
2022-12-03T00:54:57.769Z,102604.88
2022-12-03T00:57:27.367Z,102599.78
2022-12-03T00:59:55.518Z,102599.78
2022-12-03T01:02:23.932Z,102601.56
2022-12-03T01:04:52.553Z,102596.50
2022-12-03T01:07:21.024Z,102589.38
2022-12-03T01:09:49.315Z,102598.81
2022-12-03T01:12:17.534Z,102596.22
2022-12-03T01:14:47.333Z,102601.41
2022-12-03T01:17:15.513Z,102603.09
2022-12-03T01:19:48.300Z,102594.25
2022-12-03T01:22:16.809Z,102604.56
2022-12-03T01:24:44.951Z,102608.78
2022-12-03T01:27:13.103Z,102611.13
2022-12-03T01:29:41.199Z,102602.88
2022-12-03T01:32:19.782Z,102611.00
2022-12-03T01:34:50.352Z,102611.41
2022-12-03T01:37:23.439Z,102608.56
2022-12-03T01:39:51.589Z,102609.28
2022-12-03T01:42:36.460Z,102605.78
2022-12-03T01:45:05.856Z,102602.19
2022-12-03T01:47:37.744Z,102607.47
2022-12-03T01:50:09.171Z,102604.88
2022-12-03T01:52:39.822Z,102611.16
2022-12-03T01:55:15.348Z,102609.53
2022-12-03T01:57:47.508Z,102602.63
2022-12-03T02:00:18.947Z,102611.31
2022-12-03T02:02:51.719Z,102611.31
2022-12-03T02:05:24.052Z,102614.00
2022-12-03T02:07:52.334Z,102605.47
2022-12-03T02:10:25.170Z,102609.03
2022-12-03T02:12:59.774Z,102605.63
2022-12-03T02:15:28.240Z,102606.50
2022-12-03T02:17:58.600Z,102603.22
2022-12-03T02:20:27.273Z,102611.06
2022-12-03T02:23:04.561Z,102604.97
2022-12-03T02:25:36.803Z,102605.81
2022-12-03T02:28:07.781Z,102611.06
2022-12-03T02:30:36.373Z,102596.38
2022-12-03T02:33:05.215Z,102612.91
2022-12-03T02:35:35.747Z,102612.03
2022-12-03T02:38:16.691Z,102610.25
2022-12-03T02:40:48.935Z,102604.19
2022-12-03T02:43:17.775Z,102604.19
2022-12-03T02:45:49.356Z,102592.09
2022-12-03T02:48:20.362Z,102593.84
2022-12-03T02:50:53.754Z,102593.13
2022-12-03T02:53:27.081Z,102591.50
2022-12-03T02:56:00.544Z,102601.16
2022-12-03T02:58:32.782Z,102586.31
2022-12-03T03:01:03.470Z,102583.63
2022-12-03T03:03:33.467Z,102586.16
2022-12-03T03:06:03.758Z,102582.66
2022-12-03T03:08:32.462Z,102585.31
2022-12-03T03:11:03.573Z,102585.31
2022-12-03T03:13:33.888Z,102582.81
2022-12-03T03:16:04.008Z,102575.91
2022-12-03T03:18:33.265Z,102582.91
2022-12-03T03:21:01.827Z,102584.59
2022-12-03T03:23:30.064Z,102589.00
2022-12-03T03:26:03.714Z,102586.31
2022-12-03T03:28:32.871Z,102577.53
2022-12-03T03:31:03.418Z,102574.88
2022-12-03T03:33:32.399Z,102566.97
2022-12-03T03:36:01.453Z,102580.81
2022-12-03T03:38:30.475Z,102586.00
2022-12-03T03:41:03.110Z,102578.19
2022-12-03T03:43:34.730Z,102579.00
2022-12-03T03:46:04.971Z,102577.22
2022-12-03T03:48:34.114Z,102577.22
2022-12-03T03:51:03.571Z,102584.03
2022-12-03T03:53:32.555Z,102582.25
2022-12-03T03:56:02.240Z,102582.25
2022-12-03T03:58:30.443Z,102580.47
2022-12-03T04:00:58.674Z,102585.56
2022-12-03T04:03:26.906Z,102585.47
2022-12-03T04:05:55.183Z,102582.09
2022-12-03T04:08:23.369Z,102582.09
2022-12-03T04:11:08.811Z,102591.66
2022-12-03T04:13:38.273Z,102580.38
2022-12-03T04:16:07.085Z,102585.47
2022-12-03T04:18:44.486Z,102576.75
2022-12-03T04:21:28.916Z,102584.44
2022-12-03T04:23:57.192Z,102584.44
2022-12-03T04:26:43.039Z,102585.31
2022-12-03T04:29:13.411Z,102585.31
2022-12-03T04:31:59.514Z,102571.53
2022-12-03T04:34:45.246Z,102570.63
2022-12-03T04:37:13.599Z,102562.78
2022-12-03T04:39:42.369Z,102560.97
2022-12-03T04:42:10.635Z,102568.75
2022-12-03T04:44:40.147Z,102576.56
2022-12-03T04:47:11.521Z,102562.78
2022-12-03T04:49:42.488Z,102566.16
2022-12-03T04:52:12.409Z,102565.28
2022-12-03T04:54:42.332Z,102553.19
2022-12-03T04:57:11.589Z,102560.97
2022-12-03T04:59:41.643Z,102550.50
2022-12-03T05:02:10.126Z,102553.09
2022-12-03T05:04:38.516Z,102559.03
2022-12-03T05:07:06.704Z,102552.94
2022-12-03T05:09:35.010Z,102550.25
2022-12-03T05:12:04.001Z,102553.66
2022-12-03T05:14:32.331Z,102550.09
2022-12-03T05:17:01.981Z,102550.84
2022-12-03T05:19:45.082Z,102542.94
2022-12-03T05:22:13.337Z,102545.41
2022-12-03T05:24:41.460Z,102563.56
2022-12-03T05:27:09.669Z,102550.50
2022-12-03T05:29:37.841Z,102553.03
2022-12-03T05:32:07.643Z,102556.28
2022-12-03T05:34:35.901Z,102550.09
2022-12-03T05:37:04.111Z,102555.09
2022-12-03T05:39:32.427Z,102559.34
2022-12-03T05:42:18.204Z,102552.19
2022-12-03T05:44:48.976Z,102557.19
2022-12-03T05:47:18.815Z,102551.84
2022-12-03T05:49:47.111Z,102554.53
2022-12-03T05:52:15.214Z,102550.09
2022-12-03T05:54:43.469Z,102540.41
2022-12-03T05:57:11.939Z,102545.59
2022-12-03T05:59:40.417Z,102543.72
2022-12-03T06:02:08.689Z,102539.34
2022-12-03T06:04:38.544Z,102543.56
2022-12-03T06:07:09.700Z,102540.09
2022-12-03T06:09:41.927Z,102548.66
2022-12-03T06:12:10.135Z,102549.59
2022-12-03T06:14:38.260Z,102539.00
2022-12-03T06:17:06.425Z,102527.66
2022-12-03T06:19:34.646Z,102534.66
2022-12-03T06:22:04.186Z,102531.13
2022-12-03T06:24:32.391Z,102532.84
2022-12-03T06:27:00.564Z,102531.97
2022-12-03T06:29:28.872Z,102525.94
2022-12-03T06:31:57.072Z,102532.78
2022-12-03T06:34:25.554Z,102524.06
2022-12-03T06:36:53.671Z,102526.66
2022-12-03T06:39:23.617Z,102534.41
2022-12-03T06:41:52.007Z,102535.28
2022-12-03T06:44:20.447Z,102534.31
2022-12-03T06:47:03.806Z,102527.25
2022-12-03T06:49:32.449Z,102532.44
2022-12-03T06:52:00.623Z,102534.16
2022-12-03T06:54:30.169Z,102521.88
2022-12-03T06:56:58.293Z,102534.84
2022-12-03T06:59:26.965Z,102527.00
2022-12-03T07:01:55.191Z,102532.09
2022-12-03T07:04:23.435Z,102533.78
2022-12-03T07:06:52.233Z,102534.59
2022-12-03T07:09:20.630Z,102539.78
2022-12-03T07:11:50.155Z,102538.00
2022-12-03T07:14:18.272Z,102527.53
2022-12-03T07:16:46.479Z,102535.16
2022-12-03T07:19:15.713Z,102535.06
2022-12-03T07:21:43.952Z,102534.16
2022-12-03T07:24:12.294Z,102539.25
2022-12-03T07:26:40.553Z,102530.50
2022-12-03T07:29:10.119Z,102537.50
2022-12-03T07:31:38.290Z,102524.53
2022-12-03T07:34:06.570Z,102533.09
2022-12-03T07:36:34.811Z,102533.09
2022-12-03T07:39:03.003Z,102537.41
2022-12-03T07:41:32.680Z,102536.50
2022-12-03T07:44:00.929Z,102539.94
2022-12-03T07:46:30.557Z,102539.09
2022-12-03T07:48:58.819Z,102547.78
2022-12-03T07:51:31.958Z,102546.00
2022-12-03T07:54:00.756Z,102544.28
2022-12-03T07:56:28.917Z,102539.09
2022-12-03T07:58:57.133Z,102541.59
2022-12-03T08:01:25.427Z,102538.13
2022-12-03T08:03:55.025Z,102539.84
2022-12-03T08:06:23.252Z,102537.97
2022-12-03T08:08:51.804Z,102546.53
2022-12-03T08:11:20.062Z,102536.16
2022-12-03T08:13:48.192Z,102542.97
2022-12-03T08:16:19.868Z,102541.09
2022-12-03T08:18:58.992Z,102541.97
2022-12-03T08:21:30.919Z,102538.44
2022-12-03T08:23:59.708Z,102541.81
2022-12-03T08:26:29.771Z,102534.84
2022-12-03T08:28:58.308Z,102537.25
2022-12-03T08:31:33.157Z,102533.88
2022-12-03T08:34:20.101Z,102535.47
2022-12-03T08:36:49.688Z,102533.78
2022-12-03T08:39:31.057Z,102532.88
2022-12-03T08:42:27.631Z,102524.28
2022-12-03T08:44:56.517Z,102524.28
2022-12-03T08:47:25.898Z,102526.09
2022-12-03T08:49:59.900Z,102534.66
2022-12-03T08:52:34.265Z,102533.88
2022-12-03T08:55:30.530Z,102527.78
2022-12-03T08:57:59.424Z,102525.19
2022-12-03T09:00:28.012Z,102527.84
2022-12-03T09:03:00.736Z,102528.06
2022-12-03T09:05:33.441Z,102531.28
2022-12-03T09:08:01.800Z,102528.94
2022-12-03T09:10:30.122Z,102534.13
2022-12-03T09:12:58.248Z,102523.75
2022-12-03T09:15:26.374Z,102530.72
2022-12-03T09:17:54.498Z,102526.34
2022-12-03T09:20:22.676Z,102518.63
2022-12-03T09:22:52.382Z,102520.44
2022-12-03T09:25:20.555Z,102524.81
2022-12-03T09:27:48.924Z,102519.63
2022-12-03T09:30:17.675Z,102519.63
2022-12-03T09:32:46.060Z,102518.72
2022-12-03T09:35:14.248Z,102522.94
2022-12-03T09:37:42.479Z,102517.75
2022-12-03T09:40:14.133Z,102519.44
2022-12-03T09:42:42.591Z,102516.84
2022-12-03T09:45:14.319Z,102513.53
2022-12-03T09:47:47.774Z,102514.53
2022-12-03T09:50:20.513Z,102509.59
2022-12-03T09:52:51.031Z,102507.25
2022-12-03T09:55:24.993Z,102508.31
2022-12-03T09:57:53.854Z,102508.31
2022-12-03T10:00:24.777Z,102512.06
2022-12-03T10:02:55.418Z,102508.63
2022-12-03T10:05:24.576Z,102516.69
2022-12-03T10:07:53.631Z,102507.38
2022-12-03T10:10:25.612Z,102512.56
2022-12-03T10:12:54.210Z,102505.03
2022-12-03T10:15:25.082Z,102505.19
2022-12-03T10:17:55.868Z,102512.03
2022-12-03T10:20:26.526Z,102507.72
2022-12-03T10:22:54.820Z,102502.34
2022-12-03T10:25:25.215Z,102511.09
2022-12-03T10:27:59.896Z,102507.88
2022-12-03T10:30:29.535Z,102503.75
2022-12-03T10:33:02.599Z,102504.53
2022-12-03T10:35:41.030Z,102500.19
2022-12-03T10:38:22.262Z,102499.34
2022-12-03T10:40:52.451Z,102490.69
2022-12-03T10:43:25.910Z,102495.13
2022-12-03T10:46:13.370Z,102487.44
2022-12-03T10:48:41.677Z,102485.75
2022-12-03T10:51:22.121Z,102477.22
2022-12-03T10:53:51.757Z,102476.56
2022-12-03T10:56:26.362Z,102478.53
2022-12-03T10:58:55.027Z,102471.88
2022-12-03T11:01:25.905Z,102473.72
2022-12-03T11:03:56.595Z,102470.41
2022-12-03T11:06:25.860Z,102462.78
2022-12-03T11:08:59.607Z,102466.66
2022-12-03T11:11:32.768Z,102465.38
2022-12-03T11:14:02.117Z,102465.38
2022-12-03T11:17:09.875Z,102448.44
2022-12-03T11:19:50.296Z,102453.28
2022-12-03T11:22:40.725Z,102454.19
2022-12-03T11:28:54.498Z,102446.06
2022-12-03T11:31:38.407Z,102447.69
2022-12-03T11:34:49.731Z,102429.56
2022-12-03T11:37:25.995Z,102425.44
2022-12-03T11:40:39.141Z,102429.00
2022-12-03T11:43:12.000Z,102417.13
2022-12-03T11:45:41.619Z,102411.16
2022-12-03T11:48:15.505Z,102409.53
2022-12-03T11:50:45.568Z,102410.72
2022-12-03T11:53:18.809Z,102409.81
2022-12-03T11:55:53.136Z,102407.22
2022-12-03T11:58:26.434Z,102412.41
2022-12-03T12:00:59.639Z,102398.31
2022-12-03T12:03:33.501Z,102387.78
2022-12-03T12:06:05.562Z,102391.16
2022-12-03T12:08:35.460Z,102391.25
2022-12-03T12:11:03.999Z,102390.28
2022-12-03T12:13:55.615Z,102377.28
2022-12-03T12:16:58.357Z,102371.03
2022-12-03T12:19:39.871Z,102370.34
2022-12-03T12:22:31.083Z,102359.03
2022-12-03T12:25:01.568Z,102356.59
2022-12-03T12:27:37.479Z,102356.88
2022-12-03T12:30:10.915Z,102359.88
2022-12-03T12:32:47.567Z,102354.69
2022-12-03T12:35:19.982Z,102348.59
2022-12-03T12:37:59.149Z,102353.81
2022-12-03T12:40:30.617Z,102355.72
2022-12-03T12:43:03.024Z,102343.53
2022-12-03T12:45:37.487Z,102340.13
2022-12-03T12:48:18.270Z,102340.41
2022-12-03T12:50:49.096Z,102336.41
2022-12-03T12:53:24.822Z,102330.34
2022-12-03T12:55:58.086Z,102334.44
2022-12-03T12:58:28.930Z,102335.00
2022-12-03T13:01:00.577Z,102331.66
2022-12-03T13:03:34.852Z,102341.47
2022-12-03T13:06:04.142Z,102337.03
2022-12-03T13:08:34.737Z,102338.50
2022-12-03T13:11:04.027Z,102333.81
2022-12-03T13:13:43.069Z,102335.16
2022-12-03T13:16:18.342Z,102333.88
2022-12-03T13:18:50.778Z,102337.97
2022-12-03T13:21:25.563Z,102327.25
2022-12-03T13:23:56.592Z,102329.72
2022-12-03T13:26:37.677Z,102329.53
2022-12-03T13:29:13.757Z,102325.53
2022-12-03T13:31:44.427Z,102323.56
2022-12-03T13:34:22.891Z,102326.13
2022-12-03T13:36:57.515Z,102321.66
2022-12-03T13:39:32.480Z,102321.34
2022-12-03T13:42:49.340Z,102324.44
2022-12-03T13:45:36.829Z,102332.88
2022-12-03T13:48:21.207Z,102339.53
2022-12-03T13:50:53.005Z,102336.75
2022-12-03T13:53:24.192Z,102339.13
2022-12-03T13:55:56.405Z,102328.50
2022-12-03T13:58:24.642Z,102340.50
2022-12-03T14:00:52.878Z,102337.84
2022-12-03T14:03:21.197Z,102327.28
2022-12-03T14:05:50.708Z,102331.44
2022-12-03T14:08:18.945Z,102332.00
2022-12-03T14:10:47.277Z,102335.22
2022-12-03T14:13:15.520Z,102327.19
2022-12-03T14:15:43.747Z,102329.75
2022-12-03T14:18:11.930Z,102326.06
2022-12-03T14:20:40.094Z,102332.88
2022-12-03T14:23:09.691Z,102332.72
2022-12-03T14:25:37.842Z,102332.63
2022-12-03T14:28:08.680Z,102336.94
2022-12-03T14:30:36.994Z,102338.53
2022-12-03T14:33:05.521Z,102336.69
2022-12-03T14:35:33.748Z,102333.13
2022-12-03T14:38:01.939Z,102322.50
2022-12-03T14:40:31.447Z,102324.84
2022-12-03T14:42:59.707Z,102321.13
2022-12-03T14:45:30.082Z,102323.53
2022-12-03T14:47:58.304Z,102313.63
2022-12-03T14:50:26.465Z,102311.63
2022-12-03T14:52:54.845Z,102322.66
2022-12-03T14:55:24.095Z,102312.97
2022-12-03T14:57:53.751Z,102316.19
2022-12-03T15:00:23.481Z,102311.75
2022-12-03T15:02:51.700Z,102309.78
2022-12-03T15:05:26.416Z,102309.59
2022-12-03T15:07:56.790Z,102311.91
2022-12-03T15:10:25.005Z,102305.69
2022-12-03T15:12:54.847Z,102305.53
2022-12-03T15:15:23.027Z,102299.28
2022-12-03T15:17:51.242Z,102300.00
2022-12-03T15:20:19.775Z,102300.72
2022-12-03T15:22:48.036Z,102291.09
2022-12-03T15:25:18.152Z,102312.59
2022-12-03T15:27:46.492Z,102298.50
2022-12-03T15:30:16.689Z,102294.78
2022-12-03T15:32:44.913Z,102301.63
2022-12-03T15:35:17.628Z,102304.31
2022-12-03T15:37:46.013Z,102305.38
2022-12-03T15:40:15.197Z,102303.94
2022-12-03T15:42:43.377Z,102298.03
2022-12-03T15:45:15.361Z,102292.13
2022-12-03T15:47:45.555Z,102300.00
2022-12-03T15:50:14.350Z,102296.59
2022-12-03T15:52:43.127Z,102293.22
2022-12-03T15:55:12.267Z,102295.81
2022-12-03T15:57:40.495Z,102297.47
2022-12-03T16:00:12.725Z,102296.59
2022-12-03T16:02:41.064Z,102291.25
2022-12-03T16:05:14.262Z,102290.09
2022-12-03T16:07:42.579Z,102295.66
2022-12-03T16:10:12.285Z,102295.28
2022-12-03T16:12:40.497Z,102292.44
2022-12-03T16:15:10.004Z,102291.28
2022-12-03T16:17:38.221Z,102296.63
2022-12-03T16:20:08.643Z,102295.75
2022-12-03T16:22:38.193Z,102293.25
2022-12-03T16:25:07.285Z,102292.44
2022-12-03T16:27:37.028Z,102297.88
2022-12-03T16:30:07.838Z,102298.97
2022-12-03T16:32:36.055Z,102293.13
2022-12-03T16:35:04.663Z,102294.31
2022-12-03T16:37:33.562Z,102291.88
2022-12-03T16:40:04.194Z,102285.19
2022-12-03T16:42:32.370Z,102282.66
2022-12-03T16:45:22.964Z,102279.34
2022-12-03T16:47:51.215Z,102281.06
2022-12-03T16:50:27.414Z,102279.44
2022-12-03T16:52:57.552Z,102273.47
2022-12-03T16:55:27.282Z,102282.22
2022-12-03T16:57:55.507Z,102271.06
2022-12-03T17:00:25.803Z,102278.00
2022-12-03T17:02:54.090Z,102277.13
2022-12-03T17:05:22.343Z,102271.22
2022-12-03T17:07:50.637Z,102282.47
2022-12-03T17:10:19.092Z,102278.00
2022-12-03T17:13:08.694Z,102275.59
2022-12-03T17:15:37.666Z,102273.00
2022-12-03T17:18:07.059Z,102267.81
2022-12-03T17:20:37.404Z,102254.06
2022-12-03T17:23:05.757Z,102260.13
2022-12-03T17:25:34.407Z,102253.19
2022-12-03T17:28:04.110Z,102259.25
2022-12-03T17:30:32.390Z,102259.25
2022-12-03T17:33:00.592Z,102260.13
2022-12-03T17:35:28.837Z,102254.25
2022-12-03T17:37:57.184Z,102255.13
2022-12-03T17:40:25.415Z,102264.75
2022-12-03T17:42:53.603Z,102271.72
2022-12-03T17:45:23.227Z,102265.75
2022-12-03T17:47:51.440Z,102270.19
2022-12-03T17:50:19.938Z,102275.38
2022-12-03T17:52:48.612Z,102269.31
2022-12-03T17:55:30.946Z,102271.19
2022-12-03T17:58:04.783Z,102269.47
2022-12-03T18:00:35.765Z,102259.09
2022-12-03T18:03:04.176Z,102260.81
2022-12-03T18:05:34.715Z,102259.94
2022-12-03T18:08:11.269Z,102249.38
2022-12-03T18:10:41.470Z,102256.41
2022-12-03T18:13:14.965Z,102256.50
2022-12-03T18:16:00.051Z,102255.72
2022-12-03T18:18:36.121Z,102235.53
2022-12-03T18:21:18.526Z,102268.50
2022-12-03T18:23:56.723Z,102244.53
2022-12-03T18:26:26.610Z,102261.34
2022-12-03T18:28:55.388Z,102260.56
2022-12-03T18:31:27.285Z,102254.41
2022-12-03T18:33:55.971Z,102241.84
2022-12-03T18:36:32.478Z,102248.25
2022-12-03T18:39:03.327Z,102242.81
2022-12-03T18:41:35.327Z,102238.50
2022-12-03T18:44:05.411Z,102245.66
2022-12-03T18:46:54.728Z,102249.06
2022-12-03T18:49:28.041Z,102254.16
2022-12-03T18:51:59.736Z,102240.84
2022-12-03T18:57:21.166Z,102239.81
2022-12-03T18:59:50.955Z,102251.16
2022-12-03T19:07:55.607Z,102237.91
2022-12-03T19:10:30.332Z,102236.41
2022-12-03T19:13:08.196Z,102240.69
2022-12-03T19:15:41.586Z,102229.09
2022-12-03T19:18:17.083Z,102230.88
2022-12-03T19:20:47.144Z,102239.47
2022-12-03T19:23:26.246Z,102244.00
2022-12-03T19:26:00.908Z,102231.25
2022-12-03T19:28:35.193Z,102248.22
2022-12-03T19:31:10.022Z,102239.31
2022-12-03T19:33:49.237Z,102244.66
2022-12-03T19:36:26.010Z,102248.22
2022-12-03T19:39:02.958Z,102236.88
2022-12-03T19:41:32.693Z,102235.06
2022-12-03T19:44:10.794Z,102219.22
2022-12-03T19:46:45.413Z,102225.38
2022-12-03T19:49:21.488Z,102241.91
2022-12-03T19:51:51.428Z,102229.47
2022-12-03T19:54:21.890Z,102214.53
2022-12-03T19:57:03.699Z,102215.41
2022-12-03T19:59:33.389Z,102237.50
2022-12-03T20:02:02.709Z,102232.97
2022-12-03T20:04:32.632Z,102237.41
2022-12-03T20:07:02.596Z,102238.22
2022-12-03T20:09:31.567Z,102236.53
2022-12-03T20:12:03.698Z,102209.88
2022-12-03T20:14:39.325Z,102204.59
2022-12-03T20:17:14.450Z,102232.91
2022-12-03T20:19:57.182Z,102210.19
2022-12-03T20:22:27.795Z,102233.25
2022-12-03T20:25:03.528Z,102225.56
2022-12-03T20:27:40.543Z,102225.56
2022-12-03T20:30:15.896Z,102228.16
2022-12-03T20:32:51.759Z,102233.34
2022-12-03T20:35:33.188Z,102228.09
2022-12-03T20:38:06.836Z,102221.84
2022-12-03T20:40:43.699Z,102227.28
2022-12-03T20:43:22.052Z,102237.63
2022-12-03T20:46:06.993Z,102227.72
2022-12-03T20:48:40.469Z,102224.16
2022-12-03T20:51:16.302Z,102224.72
2022-12-03T20:53:50.341Z,102233.28
2022-12-03T20:56:26.979Z,102227.75
2022-12-03T21:01:51.107Z,102238.28
2022-12-03T21:04:26.802Z,102224.91
2022-12-03T21:06:56.764Z,102226.50
2022-12-03T21:09:25.276Z,102233.31
2022-12-03T21:11:55.836Z,102243.13
2022-12-03T21:14:26.788Z,102239.75
2022-12-03T21:17:11.938Z,102215.84
2022-12-03T21:19:44.498Z,102233.66
2022-12-03T21:22:14.789Z,102232.59
2022-12-03T21:24:43.777Z,102228.31
2022-12-03T21:27:18.450Z,102211.44
2022-12-03T21:29:58.669Z,102230.72
2022-12-03T21:32:27.580Z,102218.88
2022-12-03T21:35:02.151Z,102231.50
2022-12-03T21:37:43.449Z,102230.63
2022-12-03T21:40:16.165Z,102231.34
2022-12-03T21:42:48.831Z,102225.66
2022-12-03T21:45:21.669Z,102224.22
2022-12-03T21:47:59.250Z,102218.94
2022-12-03T21:50:29.073Z,102226.19
2022-12-03T21:53:07.436Z,102221.88
2022-12-03T21:55:39.791Z,102220.03
2022-12-03T21:58:11.664Z,102210.41
2022-12-03T22:00:42.775Z,102205.94
2022-12-03T22:03:20.196Z,102221.88
2022-12-03T22:05:54.021Z,102221.00
2022-12-03T22:08:28.924Z,102213.03
2022-12-03T22:10:59.326Z,102220.28
2022-12-03T22:13:27.816Z,102208.59
2022-12-03T22:15:57.399Z,102198.25
2022-12-03T22:18:26.231Z,102211.63
2022-12-03T22:20:57.538Z,102213.31
2022-12-03T22:23:28.056Z,102214.22
2022-12-03T22:26:13.358Z,102213.25
2022-12-03T22:28:46.344Z,102208.22
2022-12-03T22:31:16.960Z,102203.06
2022-12-03T22:33:50.718Z,102204.03
2022-12-03T22:36:25.114Z,102197.88
2022-12-03T22:39:04.633Z,102198.13
2022-12-03T22:41:43.265Z,102191.19
2022-12-03T22:44:14.105Z,102189.50
2022-12-03T22:46:45.027Z,102192.09
2022-12-03T22:49:16.492Z,102194.84
2022-12-03T22:51:48.352Z,102181.47
2022-12-03T22:54:24.226Z,102195.81
2022-12-03T22:56:55.994Z,102192.34
2022-12-03T22:59:25.862Z,102178.16
2022-12-03T23:02:10.740Z,102182.88
2022-12-03T23:04:46.234Z,102177.63
2022-12-03T23:07:17.238Z,102179.31
2022-12-03T23:09:53.335Z,102176.56
2022-12-03T23:12:26.594Z,102173.16
2022-12-03T23:14:58.932Z,102178.16
2022-12-03T23:17:27.892Z,102172.84
2022-12-03T23:19:57.829Z,102171.13
2022-12-03T23:22:26.752Z,102176.41
2022-12-03T23:25:01.350Z,102169.59
2022-12-03T23:27:37.363Z,102168.63
2022-12-03T23:30:14.323Z,102168.44
2022-12-03T23:32:45.258Z,102162.47
2022-12-03T23:35:16.983Z,102164.25
2022-12-03T23:37:46.876Z,102163.38
2022-12-03T23:40:19.657Z,102151.16
2022-12-03T23:42:55.778Z,102161.75
2022-12-03T23:45:29.128Z,102167.81
2022-12-03T23:48:04.343Z,102165.94
2022-12-03T23:50:35.186Z,102169.25
2022-12-03T23:53:06.431Z,102164.81
2022-12-03T23:55:46.578Z,102180.50
2022-12-03T23:58:20.550Z,102168.38
